createdAt,value
2023-05-06T00:01:07.748Z,97134.72
2023-05-06T00:03:53.363Z,97138.69
2023-05-06T00:06:38.835Z,97128.56
2023-05-06T00:09:24.400Z,97135.16
2023-05-06T00:12:10.033Z,97140.19
2023-05-06T00:14:55.567Z,97138.09
2023-05-06T00:17:41.066Z,97144.25
2023-05-06T00:20:27.438Z,97143.41
2023-05-06T00:23:13.227Z,97139.16
2023-05-06T00:25:58.610Z,97139.41
2023-05-06T00:28:44.112Z,97145.25
2023-05-06T00:31:29.741Z,97138.56
2023-05-06T00:34:15.098Z,97141.22
2023-05-06T00:37:00.763Z,97130.81
2023-05-06T00:39:46.278Z,97141.75
2023-05-06T00:42:32.565Z,97143.84
2023-05-06T00:45:18.011Z,97137.16
2023-05-06T00:48:05.521Z,97140.66
2023-05-06T00:50:51.326Z,97144.38
2023-05-06T00:53:37.243Z,97141.94
2023-05-06T00:56:23.002Z,97141.16
2023-05-06T00:59:08.741Z,97149.13
2023-05-06T01:01:54.520Z,97137.91
2023-05-06T01:04:41.677Z,97135.25
2023-05-06T01:07:38.145Z,97138.75
2023-05-06T01:10:35.814Z,97140.06
2023-05-06T01:13:23.613Z,97140.28
2023-05-06T01:16:12.754Z,97143.78
2023-05-06T01:19:00.427Z,97141.09
2023-05-06T01:21:46.378Z,97140.84
2023-05-06T01:24:43.061Z,97132.28
2023-05-06T01:27:29.121Z,97124.56
2023-05-06T01:30:17.236Z,97126.44
2023-05-06T01:33:09.534Z,97122.94
2023-05-06T01:35:57.866Z,97122.94
2023-05-06T01:39:25.582Z,97122.94
2023-05-06T01:42:15.094Z,97123.22
2023-05-06T01:45:02.661Z,97121.03
2023-05-06T01:47:50.599Z,97117.59
2023-05-06T01:50:37.621Z,97123.19
2023-05-06T01:53:23.075Z,97116.22
2023-05-06T01:56:08.729Z,97114.38
2023-05-06T01:58:54.223Z,97123.97
2023-05-06T02:01:39.797Z,97126.38
2023-05-06T02:04:26.090Z,97124.25
2023-05-06T02:07:11.544Z,97125.09
2023-05-06T02:09:57.163Z,97114.44
2023-05-06T02:12:43.164Z,97122.16
2023-05-06T02:15:28.626Z,97116.84
2023-05-06T02:18:14.611Z,97118.69
2023-05-06T02:21:00.033Z,97117.09
2023-05-06T02:23:45.499Z,97120.56
2023-05-06T02:26:30.836Z,97118.44
2023-05-06T02:29:16.490Z,97118.19
2023-05-06T02:32:02.087Z,97108.88
2023-05-06T02:34:48.456Z,97108.63
2023-05-06T02:37:34.034Z,97105.72
2023-05-06T02:40:20.458Z,97112.41
2023-05-06T02:43:05.873Z,97104.94
2023-05-06T02:45:52.917Z,97107.38
2023-05-06T02:48:39.777Z,97108.16
2023-05-06T02:51:25.568Z,97103.63
2023-05-06T02:54:11.092Z,97098.06
2023-05-06T02:56:56.603Z,97096.19
2023-05-06T02:59:42.101Z,97096.19
2023-05-06T03:02:27.767Z,97090.84
2023-05-06T03:05:13.984Z,97090.59
2023-05-06T03:07:59.472Z,97100.47
2023-05-06T03:10:45.701Z,97096.19
2023-05-06T03:13:31.801Z,97104.44
2023-05-06T03:16:17.245Z,97097.50
2023-05-06T03:19:07.176Z,97095.88
2023-05-06T03:21:53.003Z,97100.44
2023-05-06T03:24:39.384Z,97110.25
2023-05-06T03:27:25.828Z,97114.00
2023-05-06T03:30:15.454Z,97105.47
2023-05-06T03:33:02.049Z,97099.31
2023-05-06T03:35:51.166Z,97103.84
2023-05-06T03:38:37.408Z,97100.88
2023-05-06T03:41:26.310Z,97095.53
2023-05-06T03:44:12.746Z,97092.00
2023-05-06T03:46:58.937Z,97099.47
2023-05-06T03:49:44.783Z,97102.34
2023-05-06T03:52:31.339Z,97102.63
2023-05-06T03:55:18.222Z,97101.00
2023-05-06T03:58:04.381Z,97104.97
2023-05-06T04:00:49.731Z,97103.38
2023-05-06T04:03:35.747Z,97098.31
2023-05-06T04:06:21.757Z,97098.56
2023-05-06T04:09:07.211Z,97092.38
2023-05-06T04:11:55.896Z,97097.97
2023-05-06T04:14:42.466Z,97101.94
2023-05-06T04:17:28.529Z,97104.81
2023-05-06T04:20:14.491Z,97104.03
2023-05-06T04:23:00.476Z,97107.50
2023-05-06T04:25:48.848Z,97112.03
2023-05-06T04:28:35.874Z,97115.25
2023-05-06T04:31:23.589Z,97120.06
2023-05-06T04:34:11.153Z,97125.69
2023-05-06T04:36:58.289Z,97122.75
2023-05-06T04:40:16.110Z,97131.88
2023-05-06T04:43:04.733Z,97137.72
2023-05-06T04:45:50.735Z,97142.56
2023-05-06T04:48:41.678Z,97139.41
2023-05-06T04:51:29.149Z,97146.63
2023-05-06T04:54:14.667Z,97151.19
2023-05-06T04:57:00.078Z,97160.06
2023-05-06T04:59:47.102Z,97155.81
2023-05-06T05:02:32.423Z,97156.13
2023-05-06T05:05:18.350Z,97156.16
2023-05-06T05:08:07.333Z,97147.13
2023-05-06T05:10:55.419Z,97156.31
2023-05-06T05:13:43.304Z,97154.53
2023-05-06T05:16:29.397Z,97153.81
2023-05-06T05:19:15.283Z,97157.66
2023-05-06T05:22:00.818Z,97157.97
2023-05-06T05:24:47.168Z,97166.31
2023-05-06T05:27:32.537Z,97167.97
2023-05-06T05:30:18.098Z,97163.75
2023-05-06T05:33:05.082Z,97169.66
2023-05-06T05:35:51.076Z,97163.78
2023-05-06T05:38:37.089Z,97164.34
2023-05-06T05:41:23.091Z,97160.63
2023-05-06T05:44:08.316Z,97157.69
2023-05-06T05:46:54.792Z,97166.50
2023-05-06T05:49:41.331Z,97162.78
2023-05-06T05:52:27.748Z,97170.25
2023-05-06T05:55:13.755Z,97170.25
2023-05-06T05:58:03.011Z,97162.81
2023-05-06T06:00:49.920Z,97170.94
2023-05-06T06:03:38.018Z,97172.31
2023-05-06T06:06:24.610Z,97184.88
2023-05-06T06:09:11.325Z,97179.03
2023-05-06T06:11:58.247Z,97180.63
2023-05-06T06:14:47.995Z,97176.34
2023-05-06T06:17:36.855Z,97179.84
2023-05-06T06:20:24.485Z,97184.13
2023-05-06T06:23:09.956Z,97182.75
2023-05-06T06:25:55.400Z,97178.75
2023-05-06T06:28:41.984Z,97187.03
2023-05-06T06:31:29.335Z,97202.84
2023-05-06T06:34:14.993Z,97202.84
2023-05-06T06:37:00.289Z,97197.47
2023-05-06T06:39:45.928Z,97202.03
2023-05-06T06:42:31.237Z,97202.81
2023-05-06T06:45:37.564Z,97196.69
2023-05-06T06:48:22.920Z,97202.03
2023-05-06T06:51:08.707Z,97204.16
2023-05-06T06:53:54.018Z,97213.53
2023-05-06T06:56:39.438Z,97217.00
2023-05-06T06:59:24.964Z,97211.13
2023-05-06T07:02:10.329Z,97216.47
2023-05-06T07:04:55.969Z,97213.25
2023-05-06T07:07:41.553Z,97210.59
2023-05-06T07:10:27.243Z,97207.09
2023-05-06T07:13:13.068Z,97213.78
2023-05-06T07:15:58.869Z,97218.34
2023-05-06T07:18:44.997Z,97227.19
2023-05-06T07:21:32.376Z,97223.44
2023-05-06T07:24:17.811Z,97230.63
2023-05-06T07:27:04.273Z,97225.84
2023-05-06T07:29:50.700Z,97230.91
2023-05-06T07:32:36.332Z,97238.94
2023-05-06T07:35:22.071Z,97232.00
2023-05-06T07:38:07.535Z,97237.59
2023-05-06T07:40:53.281Z,97244.06
2023-05-06T07:43:38.743Z,97241.66
2023-05-06T07:46:24.312Z,97241.09
2023-05-06T07:49:10.009Z,97237.06
2023-05-06T07:51:55.717Z,97241.63
2023-05-06T07:54:41.251Z,97240.03
2023-05-06T07:57:26.579Z,97248.03
2023-05-06T08:00:12.859Z,97243.78
2023-05-06T08:02:58.471Z,97251.78
2023-05-06T08:05:43.983Z,97251.25
2023-05-06T08:08:29.466Z,97254.44
2023-05-06T08:11:14.893Z,97252.81
2023-05-06T08:14:00.734Z,97257.38
2023-05-06T08:16:46.366Z,97258.19
2023-05-06T08:19:32.291Z,97264.06
2023-05-06T08:22:17.831Z,97264.03
2023-05-06T08:25:03.462Z,97269.91
2023-05-06T08:27:49.166Z,97274.44
2023-05-06T08:30:34.976Z,97273.06
2023-05-06T08:33:20.526Z,97268.22
2023-05-06T08:36:07.520Z,97269.50
2023-05-06T08:38:53.127Z,97276.63
2023-05-06T08:41:39.995Z,97265.31
2023-05-06T08:44:25.818Z,97262.00
2023-05-06T08:47:11.258Z,97263.56
2023-05-06T08:49:56.679Z,97270.44
2023-05-06T08:52:42.484Z,97274.66
2023-05-06T08:55:28.414Z,97268.94
2023-05-06T08:58:16.942Z,97264.31
2023-05-06T09:01:03.549Z,97262.41
2023-05-06T09:03:50.170Z,97266.41
2023-05-06T09:06:36.187Z,97266.94
2023-05-06T09:09:22.135Z,97255.16
2023-05-06T09:12:12.276Z,97262.69
2023-05-06T09:14:57.895Z,97262.19
2023-05-06T09:17:43.695Z,97260.03
2023-05-06T09:20:32.860Z,97257.84
2023-05-06T09:23:18.560Z,97258.44
2023-05-06T09:26:04.290Z,97258.16
2023-05-06T09:28:51.371Z,97262.88
2023-05-06T09:31:46.312Z,97261.88
2023-05-06T09:34:32.029Z,97249.91
2023-05-06T09:37:17.432Z,97258.44
2023-05-06T09:40:02.855Z,97249.72
2023-05-06T09:42:50.542Z,97252.88
2023-05-06T09:45:36.813Z,97248.53
2023-05-06T09:48:22.388Z,97246.31
2023-05-06T09:51:08.187Z,97242.97
2023-05-06T09:53:55.899Z,97245.56
2023-05-06T09:56:42.703Z,97241.50
2023-05-06T09:59:29.476Z,97235.25
2023-05-06T10:02:15.223Z,97229.50
2023-05-06T10:05:06.030Z,97227.56
2023-05-06T10:07:53.523Z,97231.47
2023-05-06T10:10:42.943Z,97230.81
2023-05-06T10:13:29.610Z,97241.41
2023-05-06T10:16:15.990Z,97235.69
2023-05-06T10:19:03.886Z,97233.47
2023-05-06T10:21:57.941Z,97228.03
2023-05-06T10:24:55.950Z,97223.47
2023-05-06T10:27:42.054Z,97222.72
2023-05-06T10:30:29.656Z,97228.34
2023-05-06T10:33:16.449Z,97229.84
2023-05-06T10:36:22.625Z,97221.19
2023-05-06T10:39:10.273Z,97222.09
2023-05-06T10:41:56.810Z,97217.63
2023-05-06T10:45:05.362Z,97219.94
2023-05-06T10:47:58.374Z,97206.06
2023-05-06T10:50:46.237Z,97206.28
2023-05-06T10:54:09.708Z,97201.47
2023-05-06T10:56:55.305Z,97198.59
2023-05-06T10:59:46.930Z,97200.28
2023-05-06T11:02:32.769Z,97206.00
2023-05-06T11:05:18.550Z,97195.22
2023-05-06T11:08:12.004Z,97192.00
2023-05-06T11:10:57.526Z,97197.09
2023-05-06T11:13:43.117Z,97190.06
2023-05-06T11:16:50.293Z,97184.41
2023-05-06T11:19:40.114Z,97187.28
2023-05-06T11:22:41.111Z,97191.09
2023-05-06T11:25:47.207Z,97184.59
2023-05-06T11:28:33.409Z,97181.28
2023-05-06T11:31:21.083Z,97189.25
2023-05-06T11:34:12.059Z,97187.25
2023-05-06T11:37:06.037Z,97195.53
2023-05-06T11:39:51.336Z,97182.22
2023-05-06T11:42:36.643Z,97184.22
2023-05-06T11:45:22.477Z,97177.59
2023-05-06T11:48:15.076Z,97177.44
2023-05-06T11:51:00.756Z,97182.88
2023-05-06T11:56:41.767Z,97177.78
2023-05-06T11:59:28.412Z,97184.47
2023-05-06T12:02:14.458Z,97193.09
2023-05-06T12:05:02.752Z,97195.59
2023-05-06T12:07:48.635Z,97200.78
2023-05-06T12:10:34.315Z,97192.44
2023-05-06T12:13:21.102Z,97186.22
2023-05-06T12:16:08.401Z,97193.59
2023-05-06T12:18:54.610Z,97205.59
2023-05-06T12:21:40.422Z,97213.25
2023-05-06T12:24:29.941Z,97209.69
2023-05-06T12:27:28.493Z,97215.94
2023-05-06T12:30:14.596Z,97218.44
2023-05-06T12:33:02.229Z,97216.53
2023-05-06T12:35:48.049Z,97218.16
2023-05-06T12:38:34.025Z,97208.47
2023-05-06T12:41:20.703Z,97212.66
2023-05-06T12:44:34.192Z,97216.69
2023-05-06T12:47:24.164Z,97221.13
2023-05-06T12:50:10.448Z,97222.03
2023-05-06T12:52:56.001Z,97225.38
2023-05-06T12:55:42.342Z,97233.09
2023-05-06T12:58:27.610Z,97228.72
2023-05-06T13:01:13.155Z,97222.81
2023-05-06T13:03:58.474Z,97229.22
2023-05-06T13:06:43.737Z,97227.72
2023-05-06T13:09:29.312Z,97218.34
2023-05-06T13:12:15.489Z,97221.34
2023-05-06T13:15:01.197Z,97223.44
2023-05-06T13:17:46.658Z,97221.84
2023-05-06T13:20:32.547Z,97222.81
2023-05-06T13:23:19.477Z,97223.41
2023-05-06T13:26:06.181Z,97218.09
2023-05-06T13:28:52.149Z,97212.84
2023-05-06T13:31:37.490Z,97209.72
2023-05-06T13:34:23.296Z,97207.09
2023-05-06T13:37:09.311Z,97200.44
2023-05-06T13:39:54.668Z,97200.72
2023-05-06T13:42:40.059Z,97196.31
2023-05-06T13:45:25.508Z,97199.13
2023-05-06T13:48:12.181Z,97200.72
2023-05-06T13:50:58.162Z,97191.97
2023-05-06T13:53:43.938Z,97183.78
2023-05-06T13:56:29.338Z,97183.00
2023-05-06T13:59:15.040Z,97186.56
2023-05-06T14:04:46.591Z,97185.28
2023-05-06T14:07:31.906Z,97179.72
2023-05-06T14:10:17.215Z,97182.75
2023-05-06T14:13:03.948Z,97171.75
2023-05-06T14:15:51.949Z,97186.50
2023-05-06T14:18:37.894Z,97181.13
2023-05-06T14:21:23.351Z,97174.88
2023-05-06T14:24:10.205Z,97172.34
2023-05-06T14:26:56.150Z,97173.03
2023-05-06T14:29:46.164Z,97169.63
2023-05-06T14:32:33.018Z,97170.19
2023-05-06T14:35:18.770Z,97166.19
2023-05-06T14:38:04.660Z,97165.41
2023-05-06T14:40:50.844Z,97166.00
2023-05-06T14:43:36.125Z,97167.09
2023-05-06T14:46:21.769Z,97160.81
2023-05-06T14:49:07.264Z,97156.97
2023-05-06T14:51:52.697Z,97152.88
2023-05-06T14:54:42.463Z,97149.81
2023-05-06T14:57:28.382Z,97149.31
2023-05-06T15:00:14.954Z,97155.56
2023-05-06T15:03:00.833Z,97151.84
2023-05-06T15:05:46.619Z,97159.56
2023-05-06T15:08:32.125Z,97159.31
2023-05-06T15:11:17.569Z,97157.81
2023-05-06T15:14:02.820Z,97156.88
2023-05-06T15:16:48.332Z,97155.22
2023-05-06T15:19:34.234Z,97158.53
2023-05-06T15:22:19.685Z,97148.75
2023-05-06T15:25:05.478Z,97160.53
2023-05-06T15:27:51.278Z,97161.03
2023-05-06T15:30:39.718Z,97161.84
2023-05-06T15:33:24.965Z,97154.97
2023-05-06T15:36:11.213Z,97159.50
2023-05-06T15:39:00.394Z,97152.72
2023-05-06T15:41:46.967Z,97157.53
2023-05-06T15:44:33.767Z,97154.28
2023-05-06T15:47:19.684Z,97153.50
2023-05-06T15:50:16.494Z,97153.13
2023-05-06T15:53:06.685Z,97155.25
2023-05-06T15:55:56.628Z,97146.50
2023-05-06T15:58:47.552Z,97151.53
2023-05-06T16:04:21.007Z,97153.41
2023-05-06T16:07:07.617Z,97145.69
2023-05-06T16:09:53.202Z,97150.53
2023-05-06T16:12:38.934Z,97143.78
2023-05-06T16:15:24.368Z,97145.94
2023-05-06T16:18:10.663Z,97143.47
2023-05-06T16:20:56.466Z,97140.31
2023-05-06T16:23:41.777Z,97147.84
2023-05-06T16:26:27.211Z,97147.75
2023-05-06T16:29:12.415Z,97141.97
2023-05-06T16:31:58.020Z,97140.97
2023-05-06T16:34:43.264Z,97140.88
2023-05-06T16:37:29.245Z,97144.00
2023-05-06T16:40:20.550Z,97139.78
2023-05-06T16:43:06.296Z,97139.91
2023-05-06T16:45:51.599Z,97139.22
2023-05-06T16:48:37.204Z,97140.44
2023-05-06T16:51:23.056Z,97139.72
2023-05-06T16:54:09.040Z,97136.03
2023-05-06T16:56:54.824Z,97139.31
2023-05-06T16:59:40.151Z,97137.25
2023-05-06T17:02:25.878Z,97137.03
2023-05-06T17:05:11.411Z,97139.53
2023-05-06T17:10:43.677Z,97146.09
2023-05-06T17:13:29.017Z,97147.78
2023-05-06T17:16:14.650Z,97144.09
2023-05-06T17:19:00.040Z,97144.16
2023-05-06T17:21:45.347Z,97143.13
2023-05-06T17:24:30.885Z,97145.16
2023-05-06T17:27:17.260Z,97145.69
2023-05-06T17:30:02.995Z,97151.63
2023-05-06T17:32:48.431Z,97148.38
2023-05-06T17:35:33.788Z,97157.19
2023-05-06T17:38:19.132Z,97152.47
2023-05-06T17:41:04.525Z,97153.69
2023-05-06T17:43:49.948Z,97162.38
2023-05-06T17:46:35.404Z,97161.38
2023-05-06T17:49:20.695Z,97165.22
2023-05-06T17:52:06.263Z,97163.16
2023-05-06T17:54:57.497Z,97157.41
2023-05-06T17:57:56.615Z,97172.84
2023-05-06T18:00:42.943Z,97175.69
2023-05-06T18:03:28.363Z,97171.22
2023-05-06T18:06:14.222Z,97171.59
2023-05-06T18:08:59.639Z,97167.16
2023-05-06T18:11:46.146Z,97172.78
2023-05-06T18:14:31.512Z,97173.00
2023-05-06T18:17:17.045Z,97179.66
2023-05-06T18:20:03.083Z,97173.59
2023-05-06T18:22:48.837Z,97176.09
2023-05-06T18:25:34.389Z,97182.56
2023-05-06T18:28:19.972Z,97186.88
2023-05-06T18:31:06.597Z,97179.13
2023-05-06T18:33:52.148Z,97184.75
2023-05-06T18:36:37.797Z,97189.56
2023-05-06T18:39:23.853Z,97192.81
2023-05-06T18:42:10.052Z,97191.22
2023-05-06T18:44:56.655Z,97200.09
2023-05-06T18:47:41.877Z,97198.53
2023-05-06T18:50:27.251Z,97202.53
2023-05-06T18:53:12.494Z,97203.38
2023-05-06T18:55:57.985Z,97204.97
2023-05-06T18:58:43.514Z,97203.09
2023-05-06T19:01:28.903Z,97208.97
2023-05-06T19:04:14.949Z,97213.25
2023-05-06T19:07:01.195Z,97215.66
2023-05-06T19:09:46.936Z,97219.97
2023-05-06T19:12:32.413Z,97222.59
2023-05-06T19:15:19.162Z,97227.69
2023-05-06T19:18:05.042Z,97241.06
2023-05-06T19:20:51.737Z,97239.47
2023-05-06T19:23:38.412Z,97243.72
2023-05-06T19:26:24.094Z,97247.47
2023-05-06T19:29:09.628Z,97246.41
2023-05-06T19:31:55.295Z,97250.94
2023-05-06T19:34:40.805Z,97253.88
2023-05-06T19:37:30.130Z,97255.75
2023-05-06T19:40:15.671Z,97268.34
2023-05-06T19:43:03.921Z,97268.88
2023-05-06T19:45:49.497Z,97272.63
2023-05-06T19:48:36.883Z,97267.28
2023-05-06T19:51:22.937Z,97271.53
2023-05-06T19:54:08.218Z,97271.75
2023-05-06T19:56:53.877Z,97270.63
2023-05-06T19:59:39.197Z,97271.16
2023-05-06T20:02:24.690Z,97267.38
2023-05-06T20:05:10.656Z,97272.13
2023-05-06T20:07:56.715Z,97266.97
2023-05-06T20:10:42.428Z,97267.47
2023-05-06T20:13:28.223Z,97277.31
2023-05-06T20:16:14.098Z,97272.69
2023-05-06T20:18:59.709Z,97274.25
2023-05-06T20:21:45.372Z,97280.59
2023-05-06T20:24:31.737Z,97282.44
2023-05-06T20:27:17.518Z,97285.88
2023-05-06T20:30:04.081Z,97286.34
2023-05-06T20:32:51.467Z,97282.03
2023-05-06T20:35:40.510Z,97293.41
2023-05-06T20:38:27.300Z,97286.88
2023-05-06T20:41:13.004Z,97291.09
2023-05-06T20:43:58.499Z,97296.06
2023-05-06T20:46:44.272Z,97298.94
2023-05-06T20:49:30.615Z,97297.41
2023-05-06T20:52:16.394Z,97302.41
2023-05-06T20:55:02.287Z,97305.56
2023-05-06T20:57:47.914Z,97298.06
2023-05-06T21:00:33.331Z,97303.59
2023-05-06T21:03:18.990Z,97307.00
2023-05-06T21:06:04.558Z,97301.69
2023-05-06T21:08:51.854Z,97304.66
2023-05-06T21:11:37.379Z,97302.00
2023-05-06T21:14:26.268Z,97308.38
2023-05-06T21:17:12.045Z,97315.06
2023-05-06T21:19:57.917Z,97313.75
2023-05-06T21:22:43.494Z,97312.94
2023-05-06T21:25:28.916Z,97318.53
2023-05-06T21:28:14.661Z,97320.63
2023-05-06T21:31:00.518Z,97321.06
2023-05-06T21:33:46.215Z,97323.34
2023-05-06T21:36:32.064Z,97328.38
2023-05-06T21:39:17.660Z,97329.41
2023-05-06T21:42:03.303Z,97328.88
2023-05-06T21:44:48.676Z,97331.22
2023-05-06T21:47:34.252Z,97342.94
2023-05-06T21:50:19.997Z,97338.59
2023-05-06T21:53:05.667Z,97335.03
2023-05-06T21:55:52.279Z,97331.09
2023-05-06T21:58:37.855Z,97337.34
2023-05-06T22:01:26.162Z,97338.88
2023-05-06T22:04:13.120Z,97340.19
2023-05-06T22:06:59.354Z,97338.00
2023-05-06T22:09:44.920Z,97341.69
2023-05-06T22:12:31.664Z,97341.88
2023-05-06T22:15:17.066Z,97342.34
2023-05-06T22:18:02.675Z,97347.91
2023-05-06T22:20:49.431Z,97345.50
2023-05-06T22:23:35.011Z,97346.38
2023-05-06T22:26:21.918Z,97352.06
2023-05-06T22:29:07.336Z,97353.38
2023-05-06T22:31:52.818Z,97352.53
2023-05-06T22:34:38.142Z,97363.44
2023-05-06T22:37:23.601Z,97353.19
2023-05-06T22:40:10.771Z,97353.69
2023-05-06T22:42:56.390Z,97356.78
2023-05-06T22:45:41.545Z,97357.84
2023-05-06T22:48:27.898Z,97353.25
2023-05-06T22:51:16.919Z,97353.41
2023-05-06T22:54:02.623Z,97347.75
2023-05-06T22:56:48.022Z,97353.31
2023-05-06T22:59:33.398Z,97349.50
2023-05-06T23:02:19.589Z,97352.88
2023-05-06T23:05:05.977Z,97360.28
2023-05-06T23:07:51.310Z,97357.03
2023-05-06T23:10:36.823Z,97354.53
2023-05-06T23:13:22.174Z,97359.31
2023-05-06T23:16:10.192Z,97353.09
2023-05-06T23:18:57.016Z,97359.69
2023-05-06T23:21:44.049Z,97358.00
2023-05-06T23:24:29.602Z,97354.66
2023-05-06T23:27:15.104Z,97361.47
2023-05-06T23:30:00.856Z,97366.75
2023-05-06T23:32:46.629Z,97366.66
2023-05-06T23:35:32.707Z,97370.34
2023-05-06T23:38:18.248Z,97363.91
2023-05-06T23:41:03.846Z,97356.28
2023-05-06T23:43:49.612Z,97362.53
2023-05-06T23:46:35.283Z,97360.91
2023-05-06T23:49:20.861Z,97359.34
2023-05-06T23:52:06.301Z,97368.31
2023-05-06T23:54:51.885Z,97367.50
2023-05-06T23:57:37.422Z,97369.13
